»·PEaware :: N149CD KVNY-KAPV

N149CD :: KVNY-KAPV

FLIGHT INFORMATION

Flight Status: Arrived
Operator: Privately registered:
United States
More flights under this callsign
Pilot: Nathan E. (30132)
Aircraft: CESSNA 172 SKYHAWK
(C172)
More flights by this aircraft type
Origin: KVNY Van Nuys
United States
Destination: KAPV Apple Valley
United States
More flights between these airports :: More routes between these airports
Route: NUAL1 PMD V12 HELDE
File this flight plan on PilotEdge
Remarks:
Altitude:
(Current/Filed)
7,000ft
Speed:
(Current/Filed)
110kts
Departed: 10-Nov-20 10:35 AM
Arrived: 10-Nov-20 11:38 AM
Distance/Time
Traveled:
68nm/1:03
Distance/Time
To Go:
Arrived

Flight Plot

Page will automatically refresh every two minutes.

Flight plan parsing failed; only flown route is shown


Map Options




Map Legend


Flown Route
Filed Route
Departure Airport
Arrival Airport
Navaid (VOR, NDB)
Fix

Horizontal Profiles

Position Reports

Time Latitude Longitude Heading Altitude Ground
Speed
10-Nov-20 10:11 34.208083 -118.491766 90 806ft 0kts
10-Nov-20 10:12 34.208083 -118.491766 90 806ft 0kts
10-Nov-20 10:13 34.208083 -118.491766 90 806ft 0kts
10-Nov-20 10:14 34.208083 -118.491766 90 806ft 0kts
10-Nov-20 10:15 34.208083 -118.491766 90 806ft 0kts
10-Nov-20 10:16 34.208083 -118.491766 90 806ft 0kts
10-Nov-20 10:17 34.208083 -118.491766 90 806ft 0kts
10-Nov-20 10:21 34.208083 -118.491766 90 806ft 0kts
10-Nov-20 10:22 34.208083 -118.491766 90 806ft 0kts
10-Nov-20 10:23 34.208083 -118.491766 90 806ft 0kts
10-Nov-20 10:24 34.208083 -118.491766 90 806ft 0kts
10-Nov-20 10:25 34.208083 -118.491766 90 806ft 0kts
10-Nov-20 10:26 34.208083 -118.491766 90 806ft 0kts
10-Nov-20 10:27 34.208083 -118.491766 90 806ft 0kts
10-Nov-20 10:28 34.208083 -118.491766 90 806ft 0kts
10-Nov-20 10:29 34.208083 -118.491766 90 806ft 0kts
10-Nov-20 10:30 34.211337 -118.491680 355 806ft 15kts
10-Nov-20 10:31 34.215556 -118.492166 357 806ft 19kts
10-Nov-20 10:32 34.219029 -118.492170 99 806ft 0kts
10-Nov-20 10:33 34.219029 -118.492169 99 806ft 0kts
10-Nov-20 10:34 34.216808 -118.491040 175 806ft 48kts
10-Nov-20 10:35 34.195548 -118.489747 170 1467ft 80kts
10-Nov-20 10:36 34.175940 -118.480844 125 2340ft 76kts
10-Nov-20 10:37 34.161975 -118.461600 124 3208ft 76kts
10-Nov-20 10:38 34.147877 -118.442344 124 4024ft 77kts
10-Nov-20 10:39 34.133532 -118.422945 120 4795ft 77kts
10-Nov-20 10:40 34.145520 -118.414025 351 5537ft 74kts
10-Nov-20 10:41 34.165453 -118.418348 355 6274ft 72kts
10-Nov-20 10:42 34.185108 -118.422242 355 6970ft 72kts
10-Nov-20 10:43 34.211071 -118.427178 354 7017ft 104kts
10-Nov-20 10:44 34.239108 -118.432595 353 7016ft 103kts
10-Nov-20 10:45 34.267879 -118.438178 353 7015ft 103kts
10-Nov-20 10:46 34.296400 -118.443718 353 7017ft 103kts
10-Nov-20 10:48 34.324831 -118.449245 353 7018ft 103kts
10-Nov-20 10:49 34.353211 -118.454765 353 7019ft 103kts
10-Nov-20 10:50 34.380939 -118.455598 35 7020ft 103kts
10-Nov-20 10:51 34.400772 -118.429975 46 7024ft 105kts
10-Nov-20 10:52 34.419158 -118.402408 48 7031ft 104kts
10-Nov-20 10:53 34.436994 -118.374526 49 7039ft 105kts
10-Nov-20 10:54 34.454994 -118.346012 49 7047ft 106kts
10-Nov-20 10:55 34.473143 -118.317138 49 7056ft 106kts
10-Nov-20 10:56 34.491396 -118.288050 49 6992ft 109kts
10-Nov-20 10:57 34.509804 -118.258676 49 6995ft 109kts
10-Nov-20 10:58 34.528382 -118.229004 48 6999ft 109kts
10-Nov-20 10:59 34.546850 -118.199474 48 7002ft 110kts
10-Nov-20 11:00 34.565352 -118.169865 48 7003ft 110kts
10-Nov-20 11:01 34.584306 -118.139503 48 7002ft 109kts
10-Nov-20 11:02 34.603327 -118.109012 48 7001ft 109kts
10-Nov-20 11:03 34.621555 -118.079765 49 6999ft 109kts
10-Nov-20 11:04 34.632804 -118.044404 75 6999ft 113kts
10-Nov-20 11:05 34.637622 -118.005966 76 6998ft 113kts
10-Nov-20 11:06 34.642022 -117.967258 77 6997ft 114kts
10-Nov-20 11:06 34.645553 -117.935304 77 6996ft 114kts
10-Nov-20 11:08 34.650438 -117.890667 77 7023ft 115kts
10-Nov-20 11:08 34.653969 -117.858169 77 7022ft 115kts
10-Nov-20 11:10 34.658870 -117.812934 77 7020ft 115kts
10-Nov-20 11:11 34.663054 -117.774184 77 7018ft 115kts
10-Nov-20 11:11 34.666568 -117.741312 77 7016ft 116kts
10-Nov-20 11:12 34.670813 -117.701637 77 7014ft 116kts
10-Nov-20 11:13 34.675127 -117.661281 77 7012ft 116kts
10-Nov-20 11:14 34.679895 -117.621168 74 7010ft 116kts
10-Nov-20 11:15 34.694105 -117.586875 57 7001ft 113kts
10-Nov-20 11:16 34.708379 -117.552138 59 6990ft 113kts
10-Nov-20 11:17 34.722184 -117.517550 59 6979ft 113kts
10-Nov-20 11:18 34.736011 -117.482826 59 7003ft 112kts
10-Nov-20 11:19 34.749795 -117.448178 59 7008ft 113kts
10-Nov-20 11:20 34.763644 -117.413320 59 7008ft 113kts
10-Nov-20 11:21 34.777418 -117.378618 59 7008ft 113kts
10-Nov-20 11:22 34.791137 -117.344015 60 7008ft 113kts
10-Nov-20 11:23 34.804908 -117.309250 59 7010ft 114kts
10-Nov-20 11:24 34.818701 -117.274390 59 7011ft 114kts
10-Nov-20 11:25 34.832640 -117.239125 59 7005ft 115kts
10-Nov-20 11:26 34.834696 -117.200806 99 6617ft 118kts
10-Nov-20 11:27 34.825951 -117.162203 102 6111ft 120kts
10-Nov-20 11:28 34.816252 -117.121678 108 6036ft 124kts
10-Nov-20 11:29 34.785754 -117.113856 195 6172ft 120kts
10-Nov-20 11:30 34.753593 -117.124484 198 5916ft 117kts
10-Nov-20 11:31 34.721841 -117.135583 197 5823ft 122kts
10-Nov-20 11:32 34.689072 -117.147070 196 5240ft 121kts
10-Nov-20 11:33 34.658850 -117.157633 196 4600ft 114kts
10-Nov-20 11:34 34.628100 -117.168383 196 3970ft 103kts
10-Nov-20 11:35 34.604582 -117.176591 196 3457ft 69kts
10-Nov-20 11:36 34.585940 -117.183112 197 3069ft 54kts
10-Nov-20 11:37 34.579346 -117.186092 239 3066ft 13kts
10-Nov-20 11:38 34.579158 -117.187219 269 3066ft 0kts

Navigation Log

Ident Type
Flight plan parsing failed, navigation log unavailable